createdAt,value
2023-02-19T00:00:06.498Z,100196.17
2023-02-19T00:03:02.909Z,100197.16
2023-02-19T00:05:31.672Z,100197.59
2023-02-19T00:08:00.074Z,100190.05
2023-02-19T00:10:28.535Z,100191.86
2023-02-19T00:12:57.252Z,100189.55
2023-02-19T00:15:25.846Z,100190.66
2023-02-19T00:17:54.779Z,100190.96
2023-02-19T00:20:23.141Z,100188.69
2023-02-19T00:22:51.701Z,100190.08
2023-02-19T00:25:20.621Z,100188.06
2023-02-19T00:27:49.100Z,100181.30
2023-02-19T00:30:17.579Z,100183.46
2023-02-19T00:32:51.619Z,100186.13
2023-02-19T00:35:20.001Z,100188.55
2023-02-19T00:37:48.563Z,100189.88
2023-02-19T00:40:17.259Z,100188.81
2023-02-19T00:42:45.753Z,100190.98
2023-02-19T00:45:17.757Z,100191.04
2023-02-19T00:47:46.187Z,100196.39
2023-02-19T00:50:14.787Z,100201.04
2023-02-19T00:52:43.395Z,100200.82
2023-02-19T00:55:12.388Z,100196.58
2023-02-19T00:57:40.838Z,100192.09
2023-02-19T01:00:10.349Z,100196.88
2023-02-19T01:02:38.934Z,100191.81
2023-02-19T01:05:07.639Z,100191.38
2023-02-19T01:07:38.161Z,100192.02
2023-02-19T01:10:07.635Z,100180.72
2023-02-19T01:12:36.244Z,100175.17
2023-02-19T01:15:05.155Z,100170.90
2023-02-19T01:17:36.237Z,100165.77
2023-02-19T01:20:04.913Z,100163.58
2023-02-19T01:22:33.376Z,100162.35
2023-02-19T01:25:02.036Z,100161.39
2023-02-19T01:27:30.636Z,100163.98
2023-02-19T01:29:59.580Z,100166.98
2023-02-19T01:32:28.414Z,100166.65
2023-02-19T01:34:57.160Z,100163.93
2023-02-19T01:37:25.678Z,100159.23
2023-02-19T01:39:54.332Z,100162.60
2023-02-19T01:42:23.094Z,100164.41
2023-02-19T01:44:51.497Z,100160.80
2023-02-19T01:47:21.057Z,100159.23
2023-02-19T01:49:57.171Z,100154.31
2023-02-19T01:52:32.938Z,100148.63
2023-02-19T01:55:05.116Z,100145.16
2023-02-19T01:57:42.089Z,100139.92
2023-02-19T02:00:13.408Z,100137.25
2023-02-19T02:02:44.743Z,100138.93
2023-02-19T02:05:38.960Z,100128.73
2023-02-19T02:08:25.881Z,100124.45
2023-02-19T02:10:55.444Z,100122.15
2023-02-19T02:13:24.159Z,100120.73
2023-02-19T02:16:17.838Z,100117.28
2023-02-19T02:19:14.378Z,100110.00
2023-02-19T02:22:21.160Z,100110.81
2023-02-19T02:25:26.088Z,100110.55
2023-02-19T02:28:34.617Z,100105.52
2023-02-19T02:31:10.615Z,100106.42
2023-02-19T02:34:02.895Z,100099.50
2023-02-19T02:36:36.546Z,100090.63
2023-02-19T02:39:08.743Z,100090.14
2023-02-19T02:41:46.854Z,100091.64
2023-02-19T02:44:15.342Z,100091.94
2023-02-19T02:46:46.229Z,100088.81
2023-02-19T02:49:23.726Z,100087.02
2023-02-19T02:51:54.903Z,100082.41
2023-02-19T02:54:51.483Z,100080.80
2023-02-19T02:57:21.768Z,100070.10
2023-02-19T02:59:54.057Z,100062.53
2023-02-19T03:02:26.657Z,100064.11
2023-02-19T03:05:24.675Z,100060.87
2023-02-19T03:08:00.946Z,100061.11
2023-02-19T03:10:46.359Z,100064.96
2023-02-19T03:13:49.877Z,100063.39
2023-02-19T03:16:47.692Z,100060.27
2023-02-19T03:19:19.746Z,100057.98
2023-02-19T03:22:11.043Z,100060.11
2023-02-19T03:25:12.220Z,100053.02
2023-02-19T03:27:45.345Z,100051.39
2023-02-19T03:30:25.923Z,100043.69
2023-02-19T03:33:01.978Z,100046.02
2023-02-19T03:35:33.472Z,100042.71
2023-02-19T03:38:32.719Z,100033.95
2023-02-19T03:41:15.986Z,100028.58
2023-02-19T03:44:03.573Z,100026.38
2023-02-19T03:46:44.466Z,100025.81
2023-02-19T03:49:37.352Z,100028.09
2023-02-19T03:52:35.321Z,100032.88
2023-02-19T03:55:13.334Z,100028.05
2023-02-19T03:57:45.433Z,100027.92
2023-02-19T04:00:17.185Z,100027.37
2023-02-19T04:03:02.900Z,100022.06
2023-02-19T04:05:36.366Z,100023.42
2023-02-19T04:08:11.665Z,100027.71
2023-02-19T04:10:46.658Z,100029.06
2023-02-19T04:13:20.868Z,100033.31
2023-02-19T04:15:54.056Z,100037.98
2023-02-19T04:18:27.606Z,100038.52
2023-02-19T04:20:58.621Z,100041.11
2023-02-19T04:23:30.707Z,100045.76
2023-02-19T04:26:01.589Z,100051.88
2023-02-19T04:28:30.573Z,100059.09
2023-02-19T04:30:59.035Z,100062.00
2023-02-19T04:33:27.641Z,100063.73
2023-02-19T04:35:56.322Z,100068.88
2023-02-19T04:38:24.849Z,100063.33
2023-02-19T04:40:53.514Z,100057.20
2023-02-19T04:43:21.967Z,100052.75
2023-02-19T04:45:50.502Z,100052.27
2023-02-19T04:48:19.021Z,100056.58
2023-02-19T04:50:47.502Z,100059.02
2023-02-19T04:53:16.006Z,100069.08
2023-02-19T04:55:44.539Z,100068.78
2023-02-19T04:58:13.151Z,100066.52
2023-02-19T05:00:41.651Z,100068.56
2023-02-19T05:03:10.147Z,100066.28
2023-02-19T05:05:38.631Z,100069.16
2023-02-19T05:08:07.107Z,100065.03
2023-02-19T05:10:35.657Z,100060.48
2023-02-19T05:13:04.087Z,100060.92
2023-02-19T05:15:32.663Z,100060.59
2023-02-19T05:18:01.199Z,100057.83
2023-02-19T05:20:29.712Z,100056.19
2023-02-19T05:22:58.234Z,100057.89
2023-02-19T05:25:26.756Z,100057.91
2023-02-19T05:28:15.110Z,100054.67
2023-02-19T05:30:50.168Z,100055.64
2023-02-19T05:33:20.999Z,100058.24
2023-02-19T05:35:52.028Z,100057.55
2023-02-19T05:38:20.851Z,100060.02
2023-02-19T05:40:50.027Z,100063.72
2023-02-19T05:43:18.899Z,100065.66
2023-02-19T05:45:47.457Z,100063.95
2023-02-19T05:48:15.992Z,100065.95
2023-02-19T05:50:44.652Z,100062.83
2023-02-19T05:53:13.727Z,100054.63
2023-02-19T05:55:42.260Z,100059.94
2023-02-19T05:58:10.707Z,100062.81
2023-02-19T06:00:39.172Z,100064.73
2023-02-19T06:03:07.624Z,100064.37
2023-02-19T06:05:37.947Z,100067.98
2023-02-19T06:08:06.489Z,100066.66
2023-02-19T06:10:34.958Z,100066.10
2023-02-19T06:13:03.468Z,100070.61
2023-02-19T06:15:31.899Z,100073.45
2023-02-19T06:18:01.380Z,100075.56
2023-02-19T06:20:30.376Z,100077.12
2023-02-19T06:22:58.865Z,100079.66
2023-02-19T06:25:27.374Z,100086.17
2023-02-19T06:27:55.878Z,100085.30
2023-02-19T06:30:24.384Z,100085.80
2023-02-19T06:32:54.132Z,100092.78
2023-02-19T06:35:23.051Z,100096.81
2023-02-19T06:37:51.694Z,100100.65
2023-02-19T06:40:20.171Z,100103.47
2023-02-19T06:42:48.629Z,100108.19
2023-02-19T06:45:17.058Z,100104.40
2023-02-19T06:47:45.773Z,100108.56
2023-02-19T06:50:14.947Z,100115.57
2023-02-19T06:52:43.409Z,100118.96
2023-02-19T06:55:11.825Z,100121.15
2023-02-19T06:57:40.342Z,100126.59
2023-02-19T07:00:10.282Z,100127.09
2023-02-19T07:02:38.728Z,100124.00
2023-02-19T07:05:07.346Z,100125.44
2023-02-19T07:07:35.881Z,100122.73
2023-02-19T07:10:04.606Z,100127.84
2023-02-19T07:12:33.084Z,100131.92
2023-02-19T07:15:01.493Z,100137.95
2023-02-19T07:17:30.060Z,100140.73
2023-02-19T07:19:58.527Z,100141.05
2023-02-19T07:22:27.025Z,100147.88
2023-02-19T07:24:55.624Z,100148.11
2023-02-19T07:27:24.271Z,100148.83
2023-02-19T07:29:52.770Z,100149.45
2023-02-19T07:32:21.184Z,100151.15
2023-02-19T07:34:49.661Z,100155.06
2023-02-19T07:37:18.105Z,100158.54
2023-02-19T07:39:46.576Z,100155.64
2023-02-19T07:42:15.007Z,100156.41
2023-02-19T07:44:43.469Z,100158.02
2023-02-19T07:47:11.950Z,100158.48
2023-02-19T07:49:40.491Z,100159.71
2023-02-19T07:52:09.051Z,100162.96
2023-02-19T07:54:37.580Z,100166.49
2023-02-19T07:57:06.438Z,100167.38
2023-02-19T07:59:35.187Z,100168.08
2023-02-19T08:02:22.616Z,100174.67
2023-02-19T08:04:51.612Z,100174.90
2023-02-19T08:07:20.032Z,100174.05
2023-02-19T08:10:08.427Z,100183.82
2023-02-19T08:12:55.434Z,100184.95
2023-02-19T08:15:24.019Z,100184.31
2023-02-19T08:17:52.434Z,100186.73
2023-02-19T08:20:20.943Z,100188.25
2023-02-19T08:22:49.474Z,100194.36
2023-02-19T08:25:17.971Z,100200.95
2023-02-19T08:27:46.440Z,100207.78
2023-02-19T08:30:15.009Z,100207.77
2023-02-19T08:32:43.485Z,100208.29
2023-02-19T08:35:11.982Z,100208.02
2023-02-19T08:37:40.497Z,100212.67
2023-02-19T08:40:09.946Z,100216.83
2023-02-19T08:42:38.618Z,100221.48
2023-02-19T08:45:07.506Z,100221.81
2023-02-19T08:47:37.041Z,100224.43
2023-02-19T08:50:07.322Z,100232.21
2023-02-19T08:52:35.981Z,100237.88
2023-02-19T08:55:05.944Z,100244.55
2023-02-19T08:57:38.486Z,100247.62
2023-02-19T09:00:09.057Z,100245.38
2023-02-19T09:02:37.545Z,100250.23
2023-02-19T09:05:06.296Z,100254.41
2023-02-19T09:07:34.785Z,100253.39
2023-02-19T09:10:03.746Z,100260.27
2023-02-19T09:12:33.886Z,100259.52
2023-02-19T09:15:02.712Z,100259.67
2023-02-19T09:17:31.287Z,100258.54
2023-02-19T09:19:59.845Z,100265.71
2023-02-19T09:22:28.538Z,100267.42
2023-02-19T09:24:57.042Z,100266.88
2023-02-19T09:27:25.581Z,100273.48
2023-02-19T09:29:55.342Z,100275.84
2023-02-19T09:32:23.960Z,100279.74
2023-02-19T09:34:52.473Z,100284.63
2023-02-19T09:37:25.229Z,100289.56
2023-02-19T09:39:54.829Z,100295.60
2023-02-19T09:42:26.937Z,100306.06
2023-02-19T09:44:58.303Z,100309.52
2023-02-19T09:47:29.860Z,100308.42
2023-02-19T09:50:07.054Z,100320.16
2023-02-19T09:52:51.359Z,100321.54
2023-02-19T09:55:36.580Z,100327.88
2023-02-19T09:58:52.513Z,100335.13
2023-02-19T10:01:25.181Z,100343.70
2023-02-19T10:03:53.637Z,100345.55
2023-02-19T10:06:25.271Z,100339.90
2023-02-19T10:09:00.460Z,100342.31
2023-02-19T10:11:29.211Z,100347.05
2023-02-19T10:14:13.170Z,100350.47
2023-02-19T10:16:45.195Z,100354.89
2023-02-19T10:19:14.841Z,100360.13
2023-02-19T10:21:44.254Z,100367.67
2023-02-19T10:24:20.818Z,100371.17
2023-02-19T10:26:50.846Z,100378.04
2023-02-19T10:29:21.905Z,100381.85
2023-02-19T10:32:10.558Z,100386.89
2023-02-19T10:34:39.096Z,100390.36
2023-02-19T10:37:14.824Z,100390.15
2023-02-19T10:39:49.991Z,100389.24
2023-02-19T10:42:21.581Z,100388.17
2023-02-19T10:45:02.251Z,100389.83
2023-02-19T10:47:33.443Z,100389.25
2023-02-19T10:50:04.495Z,100389.21
2023-02-19T10:52:36.475Z,100390.80
2023-02-19T10:55:28.635Z,100392.01
2023-02-19T10:57:57.990Z,100394.28
2023-02-19T11:00:29.922Z,100392.67
2023-02-19T11:03:20.212Z,100401.84
2023-02-19T11:06:01.825Z,100400.22
2023-02-19T11:08:33.450Z,100394.84
2023-02-19T11:11:01.939Z,100400.52
2023-02-19T11:13:33.170Z,100406.77
2023-02-19T11:16:02.003Z,100404.45
2023-02-19T11:18:36.559Z,100400.83
2023-02-19T11:21:07.407Z,100402.11
2023-02-19T11:23:45.557Z,100407.45
2023-02-19T11:26:22.972Z,100411.94
2023-02-19T11:29:02.982Z,100415.43
2023-02-19T11:31:32.908Z,100424.83
2023-02-19T11:34:30.227Z,100429.03
2023-02-19T11:37:28.121Z,100430.34
2023-02-19T11:39:56.654Z,100439.80
2023-02-19T11:43:00.534Z,100440.63
2023-02-19T11:45:52.659Z,100442.64
2023-02-19T11:48:38.968Z,100438.65
2023-02-19T11:51:36.533Z,100447.79
2023-02-19T11:54:18.733Z,100451.91
2023-02-19T11:56:54.498Z,100452.56
2023-02-19T11:59:34.126Z,100450.98
2023-02-19T12:02:23.273Z,100447.34
2023-02-19T12:04:58.155Z,100443.69
2023-02-19T12:07:56.393Z,100447.47
2023-02-19T12:10:58.034Z,100451.58
2023-02-19T12:14:03.867Z,100455.03
2023-02-19T12:16:45.746Z,100458.52
2023-02-19T12:19:29.650Z,100469.42
2023-02-19T12:22:13.442Z,100471.40
2023-02-19T12:25:06.342Z,100473.46
2023-02-19T12:28:10.020Z,100479.13
2023-02-19T12:31:08.590Z,100476.09
2023-02-19T12:33:49.193Z,100477.79
2023-02-19T12:36:41.923Z,100488.21
2023-02-19T12:39:42.603Z,100486.16
2023-02-19T12:43:00.207Z,100487.87
2023-02-19T12:45:56.558Z,100491.15
2023-02-19T12:48:40.473Z,100493.66
2023-02-19T12:51:28.100Z,100491.96
2023-02-19T12:54:19.700Z,100493.75
2023-02-19T12:56:50.538Z,100493.07
2023-02-19T12:59:27.465Z,100503.30
2023-02-19T13:02:11.202Z,100505.42
2023-02-19T13:04:53.302Z,100511.38
2023-02-19T13:07:34.131Z,100513.79
2023-02-19T13:10:08.985Z,100521.98
2023-02-19T13:12:41.323Z,100526.56
2023-02-19T13:15:18.741Z,100531.31
2023-02-19T13:18:01.350Z,100527.09
2023-02-19T13:20:39.379Z,100534.60
2023-02-19T13:23:50.106Z,100539.00
2023-02-19T13:26:31.163Z,100532.91
2023-02-19T13:29:11.963Z,100530.25
2023-02-19T13:32:10.585Z,100522.45
2023-02-19T13:34:54.929Z,100519.59
2023-02-19T13:37:24.611Z,100521.85
2023-02-19T13:39:55.678Z,100526.42
2023-02-19T13:42:35.518Z,100529.97
2023-02-19T13:45:06.825Z,100526.02
2023-02-19T13:47:54.493Z,100526.11
2023-02-19T13:50:23.207Z,100533.13
2023-02-19T13:52:53.766Z,100542.87
2023-02-19T13:55:44.547Z,100546.82
2023-02-19T13:58:39.283Z,100545.14
2023-02-19T14:01:10.550Z,100551.20
2023-02-19T14:04:06.921Z,100556.11
2023-02-19T14:07:04.667Z,100566.67
2023-02-19T14:09:45.307Z,100574.09
2023-02-19T14:12:15.884Z,100579.38
2023-02-19T14:14:52.982Z,100579.85
2023-02-19T14:17:27.229Z,100588.75
2023-02-19T14:20:02.907Z,100587.47
2023-02-19T14:22:47.775Z,100589.33
2023-02-19T14:25:28.332Z,100585.54
2023-02-19T14:28:05.684Z,100590.58
2023-02-19T14:30:40.887Z,100589.41
2023-02-19T14:33:11.535Z,100594.69
2023-02-19T14:35:44.018Z,100594.15
2023-02-19T14:38:35.731Z,100595.88
2023-02-19T14:41:05.397Z,100602.36
2023-02-19T14:43:35.570Z,100598.73
2023-02-19T14:46:28.132Z,100603.14
2023-02-19T14:49:05.901Z,100607.67
2023-02-19T14:51:41.220Z,100613.38
2023-02-19T14:54:17.346Z,100615.73
2023-02-19T14:56:51.689Z,100615.98
2023-02-19T14:59:24.878Z,100622.21
2023-02-19T15:02:01.509Z,100621.45
2023-02-19T15:04:36.569Z,100629.64
2023-02-19T15:07:08.891Z,100631.85
2023-02-19T15:09:41.939Z,100639.92
2023-02-19T15:12:22.215Z,100651.92
2023-02-19T15:14:55.552Z,100657.29
2023-02-19T15:17:31.019Z,100657.98
2023-02-19T15:20:05.619Z,100665.56
2023-02-19T15:22:34.159Z,100667.79
2023-02-19T15:25:04.215Z,100667.12
2023-02-19T15:27:35.978Z,100670.88
2023-02-19T15:30:04.838Z,100677.98
2023-02-19T15:32:33.349Z,100681.65
2023-02-19T15:35:05.009Z,100685.03
2023-02-19T15:37:36.118Z,100687.38
2023-02-19T15:40:07.993Z,100685.83
2023-02-19T15:42:38.371Z,100684.55
2023-02-19T15:45:15.851Z,100685.95
2023-02-19T15:47:53.194Z,100681.88
2023-02-19T15:50:32.035Z,100687.92
2023-02-19T15:53:13.666Z,100687.32
2023-02-19T15:55:49.718Z,100686.59
2023-02-19T15:58:28.030Z,100685.34
2023-02-19T16:01:01.218Z,100688.34
2023-02-19T16:03:31.354Z,100688.70
2023-02-19T16:06:06.841Z,100693.21
2023-02-19T16:08:37.737Z,100701.30
2023-02-19T16:11:28.071Z,100710.30
2023-02-19T16:14:22.971Z,100723.80
2023-02-19T16:16:59.334Z,100726.61
2023-02-19T16:19:31.229Z,100728.47
2023-02-19T16:22:01.028Z,100732.13
2023-02-19T16:24:34.084Z,100734.58
2023-02-19T16:27:04.822Z,100732.98
2023-02-19T16:29:33.878Z,100734.81
2023-02-19T16:32:06.267Z,100741.95
2023-02-19T16:34:43.388Z,100740.58
2023-02-19T16:37:30.747Z,100742.06
2023-02-19T16:40:25.119Z,100745.30
2023-02-19T16:42:55.521Z,100754.59
2023-02-19T16:45:27.101Z,100765.11
2023-02-19T16:47:56.250Z,100772.98
2023-02-19T16:50:27.041Z,100776.19
2023-02-19T16:53:01.729Z,100784.04
2023-02-19T16:55:32.910Z,100800.05
2023-02-19T16:58:01.804Z,100809.55
2023-02-19T17:00:32.189Z,100806.58
2023-02-19T17:03:10.081Z,100809.68
2023-02-19T17:05:41.143Z,100813.64
2023-02-19T17:08:35.014Z,100807.86
2023-02-19T17:11:12.200Z,100805.31
2023-02-19T17:13:42.064Z,100811.14
2023-02-19T17:16:17.990Z,100831.31
2023-02-19T17:18:46.995Z,100835.70
2023-02-19T17:21:21.220Z,100834.65
2023-02-19T17:23:50.362Z,100829.33
2023-02-19T17:26:25.071Z,100834.46
2023-02-19T17:28:54.013Z,100827.85
2023-02-19T17:31:22.513Z,100833.54
2023-02-19T17:33:51.978Z,100837.96
2023-02-19T17:36:30.921Z,100841.02
2023-02-19T17:39:01.267Z,100842.67
2023-02-19T17:41:30.371Z,100850.10
2023-02-19T17:43:59.033Z,100858.81
2023-02-19T17:46:28.138Z,100861.77
2023-02-19T17:48:56.559Z,100864.41
2023-02-19T17:51:25.144Z,100868.38
2023-02-19T17:53:53.639Z,100871.46
2023-02-19T17:56:26.441Z,100874.45
2023-02-19T17:58:56.868Z,100876.50
2023-02-19T18:01:25.409Z,100877.64
2023-02-19T18:03:54.062Z,100884.64
2023-02-19T18:06:23.031Z,100894.19
2023-02-19T18:08:53.364Z,100898.56
2023-02-19T18:11:23.185Z,100899.73
2023-02-19T18:13:52.603Z,100897.95
2023-02-19T18:16:22.231Z,100908.82
2023-02-19T18:18:52.001Z,100901.48
2023-02-19T18:21:24.126Z,100906.11
2023-02-19T18:23:52.641Z,100905.27
2023-02-19T18:26:21.722Z,100907.84
2023-02-19T18:28:50.294Z,100908.27
2023-02-19T18:31:18.911Z,100915.09
2023-02-19T18:33:47.480Z,100921.20
2023-02-19T18:36:15.929Z,100927.08
2023-02-19T18:38:44.936Z,100921.48
2023-02-19T18:41:14.441Z,100927.23
2023-02-19T18:43:43.167Z,100930.32
2023-02-19T18:46:11.825Z,100926.20
2023-02-19T18:48:40.400Z,100924.91
2023-02-19T18:51:12.663Z,100925.73
2023-02-19T18:53:43.403Z,100919.59
2023-02-19T18:56:11.900Z,100923.25
2023-02-19T18:58:40.588Z,100919.15
2023-02-19T19:01:09.811Z,100922.96
2023-02-19T19:03:38.738Z,100922.88
2023-02-19T19:06:07.297Z,100924.41
2023-02-19T19:08:35.710Z,100930.12
2023-02-19T19:11:04.299Z,100923.69
2023-02-19T19:13:32.820Z,100926.77
2023-02-19T19:16:01.297Z,100931.75
2023-02-19T19:18:31.499Z,100931.19
2023-02-19T19:21:03.695Z,100927.35
2023-02-19T19:23:33.139Z,100929.52
2023-02-19T19:26:04.788Z,100928.66
2023-02-19T19:28:33.500Z,100932.53
2023-02-19T19:31:02.447Z,100931.45
2023-02-19T19:33:31.207Z,100938.70
2023-02-19T19:35:59.762Z,100936.52
2023-02-19T19:38:28.536Z,100940.16
2023-02-19T19:40:57.227Z,100938.77
2023-02-19T19:43:30.558Z,100937.13
2023-02-19T19:45:59.842Z,100935.54
2023-02-19T19:48:28.322Z,100937.79
2023-02-19T19:50:59.800Z,100941.65
2023-02-19T19:53:28.295Z,100942.66
2023-02-19T19:55:56.765Z,100943.70
2023-02-19T19:58:25.224Z,100944.62
2023-02-19T20:00:54.539Z,100941.02
2023-02-19T20:03:23.170Z,100944.80
2023-02-19T20:05:51.807Z,100950.48
2023-02-19T20:08:20.454Z,100949.65
2023-02-19T20:10:49.064Z,100943.89
2023-02-19T20:13:19.399Z,100946.45
2023-02-19T20:15:47.843Z,100942.45
2023-02-19T20:18:16.264Z,100946.00
2023-02-19T20:20:44.822Z,100950.68
2023-02-19T20:23:13.286Z,100950.42
2023-02-19T20:25:41.741Z,100950.73
2023-02-19T20:28:10.324Z,100951.73
2023-02-19T20:30:39.296Z,100954.56
2023-02-19T20:33:07.814Z,100957.31
2023-02-19T20:35:36.422Z,100954.94
2023-02-19T20:38:04.905Z,100960.98
2023-02-19T20:40:34.017Z,100965.08
2023-02-19T20:43:03.267Z,100966.93
2023-02-19T20:45:31.740Z,100968.94
2023-02-19T20:48:00.646Z,100973.40
2023-02-19T20:50:29.164Z,100979.45
2023-02-19T20:52:57.697Z,100981.05
2023-02-19T20:55:26.170Z,100983.99
2023-02-19T20:57:54.735Z,100993.41
2023-02-19T21:00:23.487Z,100994.44
2023-02-19T21:02:52.307Z,101000.63
2023-02-19T21:05:21.382Z,101002.70
2023-02-19T21:07:49.927Z,101002.27
2023-02-19T21:10:18.519Z,100998.55
2023-02-19T21:12:47.028Z,101000.44
2023-02-19T21:15:15.609Z,100996.64
2023-02-19T21:17:47.783Z,101001.05
2023-02-19T21:20:20.383Z,101008.95
2023-02-19T21:22:48.997Z,101009.38
2023-02-19T21:25:17.447Z,101016.11
2023-02-19T21:27:46.515Z,101014.05
2023-02-19T21:30:15.431Z,101015.22
2023-02-19T21:32:43.940Z,101016.43
2023-02-19T21:35:12.412Z,101020.56
2023-02-19T21:37:44.650Z,101021.91
2023-02-19T21:40:13.807Z,101022.13
2023-02-19T21:42:42.199Z,101020.42
2023-02-19T21:45:10.799Z,101020.50
2023-02-19T21:47:39.272Z,101021.41
2023-02-19T21:50:08.608Z,101021.95
2023-02-19T21:52:37.156Z,101022.88
2023-02-19T21:55:06.089Z,101017.14
2023-02-19T21:57:34.570Z,101019.89
2023-02-19T22:00:05.671Z,101013.23
2023-02-19T22:02:34.453Z,101012.33
2023-02-19T22:05:03.685Z,101013.41
2023-02-19T22:07:32.297Z,101014.86
2023-02-19T22:10:00.707Z,101004.23
2023-02-19T22:12:29.138Z,101001.05
2023-02-19T22:14:57.605Z,100997.99
2023-02-19T22:17:26.153Z,100998.04
2023-02-19T22:19:54.625Z,100995.44
2023-02-19T22:22:23.162Z,100998.36
2023-02-19T22:24:51.632Z,100999.08
2023-02-19T22:27:20.057Z,101001.22
2023-02-19T22:29:49.636Z,101002.84
2023-02-19T22:32:18.129Z,101010.64
2023-02-19T22:34:46.577Z,101011.41
2023-02-19T22:37:15.089Z,101017.58
2023-02-19T22:39:44.774Z,101015.77
2023-02-19T22:42:13.356Z,101014.29
2023-02-19T22:44:45.061Z,101007.21
2023-02-19T22:47:13.443Z,101006.46
2023-02-19T22:49:43.800Z,101006.36
2023-02-19T22:52:13.282Z,101006.81
2023-02-19T22:54:41.762Z,101009.22
2023-02-19T22:57:10.181Z,101010.04
2023-02-19T22:59:38.712Z,101011.95
2023-02-19T23:02:07.189Z,101012.33
2023-02-19T23:04:35.670Z,101013.16
2023-02-19T23:07:06.409Z,101009.42
2023-02-19T23:09:35.156Z,101006.42
2023-02-19T23:12:07.481Z,100998.42
2023-02-19T23:14:36.329Z,101003.00
2023-02-19T23:17:04.992Z,101000.84
2023-02-19T23:19:33.626Z,100996.96
2023-02-19T23:22:02.427Z,100997.29
2023-02-19T23:24:31.171Z,100993.54
2023-02-19T23:27:00.994Z,100991.68
2023-02-19T23:29:31.066Z,100992.59
2023-02-19T23:32:00.682Z,100990.98
2023-02-19T23:34:29.268Z,100997.25
2023-02-19T23:36:59.749Z,101000.20
2023-02-19T23:39:29.854Z,101000.36
2023-02-19T23:41:58.497Z,100991.36
2023-02-19T23:44:27.010Z,100986.27
2023-02-19T23:46:55.688Z,100979.83
2023-02-19T23:49:24.176Z,100973.75
2023-02-19T23:51:52.646Z,100964.45
2023-02-19T23:54:21.193Z,100960.55
2023-02-19T23:56:49.701Z,100960.80
2023-02-19T23:59:18.175Z,100953.79
